Terminal Aerodrome Forecast
Issued by NWS Mt. Holly, NJ

Home | Current Version | Previous Version | Text Only | Print | Product List | Glossary On
Versions: 1 2 3 4 5 6 7 8 9 10 11 12 13 14 15 16 17 18 19 20 21 22 23
349
FTUS41 KPHI 300538
TAFACY
TAF
KACY 300538Z 3006/3106 02007KT P6SM FEW250
     FM301600 09006KT P6SM SCT250
     FM301900 14005KT P6SM FEW100 BKN200
     FM310100 11007KT P6SM BKN060 BKN100=

USA.gov is the U.S. government's official web portal to all federal, state and local government web resources and services.